Time;durP1;ratioP1;P1;durP2;ratioP2;P2;SDS_P1;SDS_P2;PMS_P1;PMS_P2;Temp;Humidity;BMP_temperature;BMP_pressure;BME280_temperature;BME280_humidity;BME280_pressure;Samples;Min_cycle;Max_cycle;Signal;HPM_P1;HPM_P2
2022/12/22 03:28:21;;;;;;;47.35;34.45;;;12.20;99.90;;;12.27;98.84;100071.19;5055397;28;20044;-68
2022/12/22 03:30:56;;;;;;;49.05;34.92;;;12.30;99.90;;;12.38;98.53;100086.84;5055309;28;20049;-67
2022/12/22 03:33:27;;;;;;;46.10;34.80;;;12.30;99.90;;;12.41;98.61;100087.63;5055287;28;20041;-67
2022/12/22 03:35:55;;;;;;;43.30;33.88;;;12.30;99.90;;;12.49;98.42;100098.94;5055833;28;20107;-67
2022/12/22 03:38:24;;;;;;;44.58;33.78;;;12.30;99.90;;;12.49;98.52;100103.34;5055420;28;20043;-67
2022/12/22 03:40:53;;;;;;;45.47;33.85;;;12.30;99.90;;;12.50;98.53;100103.31;5055059;28;20072;-67
2022/12/22 03:46:30;;;;;;;44.55;33.70;;;12.30;99.90;;;12.50;98.43;100121.03;5055361;28;20053;-68
2022/12/22 03:49:10;;;;;;;43.70;32.40;;;12.30;99.90;;;12.51;98.44;100123.63;5055539;28;20037;-68
2022/12/22 03:51:42;;;;;;;43.65;32.60;;;12.30;99.90;;;12.43;98.17;100127.38;5055559;28;20076;-67
2022/12/22 03:54:13;;;;;;;40.70;31.13;;;12.20;99.90;;;12.33;98.02;100128.53;5055057;28;20060;-67
2022/12/22 03:56:42;;;;;;;;;;;12.10;99.90;;;12.39;98.46;100125.69;5055329;28;20072;-68
2022/12/22 03:59:10;;;;;;;39.20;30.27;;;12.10;99.90;;;12.44;98.68;100127.34;5055292;28;19925;-68
2022/12/22 04:01:44;;;;;;;38.13;30.08;;;12.20;99.90;;;12.28;98.52;100136.56;5054660;28;20045;-68
2022/12/22 04:04:16;;;;;;;39.88;30.77;;;12.10;99.90;;;12.25;99.16;100130.47;5055008;28;20041;-67
2022/12/22 04:06:45;;;;;;;40.58;30.83;;;12.00;99.90;;;12.08;99.52;100137.94;5054975;28;20073;-67
2022/12/22 04:09:13;;;;;;;40.17;30.05;;;11.80;99.90;;;11.71;100.00;100127.25;5055151;28;20033;-68
2022/12/22 04:14:28;;;;;;;42.28;30.35;;;11.40;99.90;;;11.53;100.00;100107.28;5054430;28;20037;-68
2022/12/22 04:17:02;;;;;;;45.45;30.98;;;11.40;99.90;;;11.75;100.00;100116.56;5054484;28;20076;-67
2022/12/22 04:19:32;;;;;;;39.53;29.80;;;11.50;99.90;;;11.46;100.00;100115.38;5054298;28;20526;-67
2022/12/22 04:22:01;;;;;;;45.85;32.15;;;11.30;99.90;;;11.49;100.00;100120.63;5054517;28;20041;-67
2022/12/22 04:24:29;;;;;;;51.95;33.97;;;11.20;99.90;;;11.42;100.00;100125.16;5054606;28;20076;-67
2022/12/22 04:26:57;;;;;;;48.97;32.90;;;11.20;99.90;;;11.32;100.00;100113.03;5054494;28;20056;-68
2022/12/22 04:29:26;;;;;;;51.40;32.88;;;11.10;99.90;;;11.17;100.00;100123.88;5054245;28;20053;-68
2022/12/22 04:31:54;;;;;;;56.35;32.95;;;11.00;99.90;;;10.70;100.00;100036.59;5054231;28;20462;-68
2022/12/22 04:34:22;;;;;;;49.00;30.45;;;11.00;99.90;;;11.15;100.00;100125.69;5054382;28;20033;-67
2022/12/22 04:36:52;;;;;;;63.72;32.00;;;10.90;99.90;;;11.20;100.00;100137.06;5054062;28;20056;-68
2022/12/22 04:39:20;;;;;;;62.97;30.58;;;10.90;99.90;;;11.13;100.00;100145.16;5054827;28;20051;-68
2022/12/22 04:41:49;;;;;;;58.13;30.55;;;10.90;99.90;;;11.24;100.00;100144.06;5054184;28;20051;-68
2022/12/22 04:44:17;;;;;;;70.85;29.30;;;11.00;99.90;;;11.22;100.00;100148.50;5054194;28;20041;-68
2022/12/22 04:46:46;;;;;;;58.00;28.65;;;11.00;99.90;;;11.09;100.00;100141.66;5054152;28;20510;-67
2022/12/22 04:49:14;;;;;;;59.83;26.08;;;10.90;99.90;;;11.00;100.00;100136.56;5053777;28;20037;-68
2022/12/22 04:51:42;;;;;;;55.20;24.50;;;10.80;99.90;;;10.90;100.00;100140.25;5053832;28;20045;-68
2022/12/22 04:54:12;;;;;;;48.35;24.35;;;10.60;99.90;;;10.95;100.00;100142.84;5053864;28;20056;-67
2022/12/22 04:56:41;;;;;;;48.00;24.60;;;10.70;99.90;;;10.92;100.00;100153.47;5069453;28;20054;-67
2022/12/22 04:59:09;;;;;;;55.88;24.63;;;10.70;99.90;;;11.04;100.00;100151.47;5053595;28;20060;-68
2022/12/22 05:01:37;;;;;;;53.78;24.10;;;10.70;99.90;;;11.13;100.00;100153.09;5054024;28;20475;-68
2022/12/22 05:04:06;;;;;;;56.22;24.35;;;10.80;99.90;;;11.13;100.00;100158.41;5053606;28;20044;-68
2022/12/22 05:06:34;;;;;;;59.65;24.40;;;10.80;99.90;;;11.04;100.00;100162.06;5053650;28;20429;-67
2022/12/22 05:09:03;;;;;;;49.88;21.38;;;10.80;99.90;;;10.92;100.00;100169.34;5053474;28;20068;-67
2022/12/22 05:11:33;;;;;;;48.63;21.85;;;10.70;99.90;;;10.65;100.00;100139.81;5053453;28;20099;-67
2022/12/22 05:14:01;;;;;;;48.30;21.00;;;10.60;99.90;;;10.75;100.00;100166.97;5053473;28;20049;-67
2022/12/22 05:16:34;;;;;;;48.70;21.77;;;10.50;99.90;;;10.93;100.00;100177.25;5053405;28;20069;-67
2022/12/22 05:19:03;;;;;;;49.33;21.35;;;10.60;99.90;;;10.91;100.00;100200.22;5053292;28;20041;-67
2022/12/22 05:21:31;;;;;;;43.60;20.50;;;10.60;99.90;;;10.78;100.00;100180.16;5053438;28;20387;-67
2022/12/22 05:23:59;;;;;;;37.95;19.55;;;10.60;99.90;;;10.81;100.00;100174.81;5053282;28;20040;-67
2022/12/22 05:26:28;;;;;;;46.33;18.65;;;10.60;99.90;;;10.50;100.00;100179.72;5052682;28;20045;-67
2022/12/22 05:28:58;;;;;;;65.00;18.38;;;10.40;99.90;;;10.49;100.00;100179.75;5053705;28;20127;-67
2022/12/22 05:31:26;;;;;;;60.95;17.23;;;10.30;99.90;;;10.57;100.00;100177.84;5053145;28;20102;-67
2022/12/22 05:33:55;;;;;;;27.48;14.75;;;10.30;99.90;;;10.48;100.00;100165.66;5053643;28;20037;-68
2022/12/22 05:36:23;;;;;;;70.95;15.43;;;10.30;99.90;;;10.51;100.00;100172.66;5053062;28;20062;-67
2022/12/22 05:38:52;;;;;;;28.02;13.95;;;10.40;99.90;;;10.45;100.00;100184.19;5053597;28;20044;-67
2022/12/22 05:41:20;;;;;;;29.50;15.30;;;10.20;99.90;;;10.48;100.00;100175.34;5052919;28;20041;-67
2022/12/22 05:43:48;;;;;;;35.55;12.68;;;10.30;99.90;;;10.74;100.00;100186.41;5052988;28;20513;-67
2022/12/22 05:46:18;;;;;;;49.45;13.70;;;10.50;99.90;;;10.64;100.00;100177.75;5053264;28;20110;-67
2022/12/22 05:48:46;;;;;;;130.20;16.13;;;10.40;99.90;;;10.84;100.00;100187.97;5053189;28;20133;-67
2022/12/22 05:51:15;;;;;;;21.13;12.60;;;10.60;99.90;;;10.87;100.00;100188.81;5052871;28;20467;-67
2022/12/22 05:53:43;;;;;;;54.50;14.00;;;10.60;99.90;;;10.51;100.00;100181.44;5053248;28;20086;-68
2022/12/22 05:56:11;;;;;;;93.72;14.65;;;10.40;99.90;;;10.38;100.00;100185.19;5053452;28;20151;-67
2022/12/22 05:58:40;;;;;;;42.25;13.52;;;10.30;99.90;;;10.36;100.00;100197.53;5052866;28;20124;-67
2022/12/22 06:01:08;;;;;;;39.83;13.10;;;10.20;99.90;;;10.40;100.00;100212.47;5052925;28;20048;-67
2022/12/22 06:03:38;;;;;;;22.35;13.88;;;10.10;99.90;;;10.47;100.00;100207.97;5052989;28;20049;-67
2022/12/22 06:06:07;;;;;;;46.47;13.10;;;10.20;99.90;;;10.39;100.00;100210.75;5052806;28;20449;-68
2022/12/22 06:08:36;;;;;;;68.30;14.52;;;10.20;99.90;;;10.44;100.00;100215.94;5052974;28;20052;-67
2022/12/22 06:11:04;;;;;;;21.30;12.77;;;10.20;99.90;;;10.50;100.00;100226.44;5052744;28;20048;-66
2022/12/22 06:13:33;;;;;;;20.83;12.68;;;10.20;99.90;;;10.49;100.00;100219.41;5052751;28;20052;-68
2022/12/22 06:16:01;;;;;;;32.85;12.50;;;10.20;99.90;;;10.45;100.00;100207.13;5068398;28;20041;-67
2022/12/22 06:18:30;;;;;;;26.63;13.32;;;10.30;99.90;;;10.53;100.00;100236.97;5052676;28;20059;-67
2022/12/22 06:20:59;;;;;;;19.08;13.00;;;10.30;99.90;;;10.33;100.00;100223.16;5052693;28;20124;-68
2022/12/22 06:23:28;;;;;;;19.55;12.35;;;10.20;99.90;;;10.49;100.00;100248.50;5052541;28;20076;-67
2022/12/22 06:25:58;;;;;;;19.30;12.00;;;10.20;99.90;;;10.59;100.00;100248.31;5052890;28;20041;-67
2022/12/22 06:28:27;;;;;;;15.95;10.38;;;10.30;99.90;;;10.61;100.00;100254.47;5052619;28;20067;-67
2022/12/22 06:30:56;;;;;;;14.52;10.50;;;10.30;99.90;;;10.61;100.00;100259.75;5052839;28;20037;-67
2022/12/22 06:33:24;;;;;;;12.82;9.50;;;10.40;99.90;;;10.61;100.00;100264.16;5052500;28;20477;-68
2022/12/22 06:35:52;;;;;;;13.73;9.77;;;10.30;99.90;;;10.65;100.00;100266.75;5052746;28;20441;-68
2022/12/22 06:38:28;;;;;;;15.75;11.52;;;10.40;99.90;;;10.74;100.00;100255.16;5052881;28;20103;-67
2022/12/22 06:40:57;;;;;;;14.07;11.25;;;10.50;99.90;;;10.78;100.00;100254.22;5056643;28;20171;-68
2022/12/22 06:43:24;;;;;;;14.40;10.73;;;10.50;99.90;;;10.77;100.00;100261.28;5056125;28;20047;-68
2022/12/22 06:45:53;;;;;;;20.05;12.85;;;10.60;99.90;;;10.80;100.00;100265.66;5056187;28;20053;-68
2022/12/22 06:48:23;;;;;;;16.90;12.30;;;10.60;99.90;;;10.79;100.00;100264.78;5056458;28;20398;-68
2022/12/22 06:50:51;;;;;;;14.93;11.55;;;10.60;99.90;;;10.80;100.00;100271.81;5056014;28;20041;-68
2022/12/22 06:53:19;;;;;;;15.30;11.38;;;10.60;99.90;;;10.85;100.00;100274.41;5055793;28;20048;-67
2022/12/22 06:55:49;;;;;;;14.25;11.05;;;10.70;99.90;;;10.76;99.93;100270.09;5056615;28;20483;-67
2022/12/22 06:58:17;;;;;;;12.20;10.02;;;10.60;99.90;;;10.61;98.96;100274.75;5055913;28;20044;-67
2022/12/22 07:00:48;;;;;;;12.63;9.82;;;10.50;99.90;;;10.57;99.00;100268.63;5055904;28;20053;-68
2022/12/22 07:03:16;;;;;;;;;;;10.40;99.90;;;10.61;99.03;100274.75;5056251;28;20483;-68
2022/12/22 07:05:45;;;;;;;12.82;10.15;;;10.50;99.90;;;10.71;98.97;100271.06;5055825;28;19967;-68
2022/12/22 07:08:13;;;;;;;15.00;10.80;;;10.50;99.90;;;10.71;98.61;100271.06;5056030;28;20045;-68
2022/12/22 07:11:00;;;;;;;15.48;11.13;;;10.50;99.90;;;10.76;98.81;100290.41;5055694;28;20048;-67
2022/12/22 07:13:33;;;;;;;10.98;9.52;;;10.50;99.90;;;10.63;97.95;100294.09;5055963;28;20044;-68
2022/12/22 07:16:02;;;;;;;8.80;7.80;;;10.50;99.90;;;10.50;97.45;100298.69;5056222;28;20107;-68
2022/12/22 07:18:32;;;;;;;10.63;9.15;;;10.40;99.90;;;10.48;97.54;100297.84;5055474;28;20036;-68
2022/12/22 07:21:04;;;;;;;13.30;10.32;;;10.30;99.90;;;10.57;97.51;100286.25;5055598;28;20045;-68
2022/12/22 07:23:32;;;;;;;12.32;9.85;;;10.40;99.90;;;10.59;97.48;100292.38;5054408;28;20048;-68
2022/12/22 07:26:01;;;;;;;11.73;10.43;;;10.40;99.90;;;10.58;97.83;100295.94;5054383;28;20552;-68
2022/12/22 07:28:33;;;;;;;13.68;10.60;;;10.40;99.90;;;10.61;97.49;100298.53;5055658;28;20072;-68
2022/12/22 07:31:02;;;;;;;13.82;10.27;;;10.40;99.90;;;10.60;97.53;100310.91;5055648;28;20045;-68
2022/12/22 07:33:31;;;;;;;14.95;10.43;;;10.40;99.90;;;10.64;97.40;100319.66;5055296;28;20452;-68
2022/12/22 07:36:05;;;;;;;13.10;10.07;;;10.40;99.90;;;10.63;97.44;100328.47;5055238;28;20128;-67
2022/12/22 07:38:37;;;;;;;11.95;8.90;;;10.40;99.90;;;10.64;97.27;100330.25;5055236;28;20087;-68
2022/12/22 07:42:43;;;;;;;13.90;9.63;;;10.40;99.90;;;10.67;97.22;100322.25;5053909;28;20041;-68
2022/12/22 07:43:58;;;;;;;12.82;9.57;;;10.50;99.90;;;10.72;97.26;100333.66;5070668;28;20483;-68
2022/12/22 07:46:30;;;;;;;16.27;10.00;;;10.50;99.90;;;10.17;97.19;100235.69;5053789;28;20049;-68
2022/12/22 07:51:45;;;;;;;12.23;9.30;;;10.50;99.90;;;10.66;96.86;100336.41;5055163;28;20072;-69
2022/12/22 07:54:15;;;;;;;9.35;7.97;;;10.50;99.90;;;10.59;96.72;100346.16;5054754;28;20459;-68
2022/12/22 07:56:46;;;;;;;10.47;8.07;;;10.40;99.90;;;10.56;96.58;100346.22;5054745;28;20048;-68
2022/12/22 07:59:16;;;;;;;9.95;7.60;;;10.40;99.90;;;10.54;96.47;100344.47;5055125;28;20045;-70
2022/12/22 08:01:45;;;;;;;11.52;7.85;;;10.30;99.90;;;10.43;96.26;100335.81;5054864;28;20375;-71
2022/12/22 08:04:14;;;;;;;11.00;7.50;;;10.30;99.90;;;10.60;96.71;100361.16;5054526;28;20103;-71
2022/12/22 08:06:43;;;;;;;13.57;7.65;;;10.40;99.90;;;10.68;96.67;100379.56;5054870;28;20048;-70
2022/12/22 08:09:16;;;;;;;14.23;8.27;;;10.40;99.90;;;10.65;96.91;100380.47;5054599;28;20044;-70
2022/12/22 08:11:44;;;;;;;14.82;8.75;;;10.40;99.90;;;10.57;96.42;100382.31;5054839;28;20136;-69
2022/12/22 08:14:12;;;;;;;12.45;8.88;;;10.40;99.90;;;10.53;96.36;100385.91;5054798;28;20064;-68
2022/12/22 08:16:42;;;;;;;11.82;9.05;;;10.30;99.90;;;10.58;96.59;100392.03;5054762;28;20104;-68
2022/12/22 08:19:11;;;;;;;14.63;9.90;;;10.30;99.90;;;10.70;96.98;100391.84;5053608;28;20055;-68
2022/12/22 08:21:39;;;;;;;13.52;10.20;;;10.40;99.90;;;10.68;96.28;100391.00;5054552;28;20382;-68
2022/12/22 08:24:08;;;;;;;12.15;9.27;;;10.40;99.90;;;10.70;95.62;100396.28;5054826;28;20053;-68
2022/12/22 08:26:41;;;;;;;14.02;9.15;;;10.40;99.90;;;10.68;95.43;100401.56;5054742;28;20045;-68
2022/12/22 08:29:16;;;;;;;13.95;10.27;;;10.40;99.90;;;10.68;95.29;100404.22;5054533;28;20140;-69
2022/12/22 08:31:46;;;;;;;13.07;9.48;;;10.40;99.90;;;10.68;95.13;100406.88;5054240;28;20106;-70
2022/12/22 08:34:16;;;;;;;12.73;9.50;;;10.40;99.90;;;10.73;94.78;100414.75;5054221;28;20077;-71
2022/12/22 08:36:49;;;;;;;14.23;9.77;;;10.40;99.90;;;10.71;94.64;100404.19;5054410;28;20083;-69
2022/12/22 08:39:20;;;;;;;15.60;9.77;;;10.40;99.90;;;10.81;94.86;100411.13;5054051;28;20069;-69
2022/12/22 08:41:51;;;;;;;13.88;9.35;;;10.50;99.90;;;10.79;94.31;100417.31;5054026;28;20124;-69
2022/12/22 08:44:22;;;;;;;18.35;10.48;;;10.60;99.90;;;10.97;94.89;100419.75;5054155;28;20044;-69
2022/12/22 08:46:54;;;;;;;13.18;10.95;;;10.70;99.90;;;11.20;94.64;100419.41;5053953;28;20051;-69
2022/12/22 08:49:23;;;;;;;12.65;9.98;;;11.00;99.90;;;11.53;94.16;100418.94;5053845;28;20045;-69
2022/12/22 08:51:53;;;;;;;17.23;11.20;;;11.30;99.90;;;11.81;92.91;100414.09;5053948;28;20037;-69
2022/12/22 08:54:21;;;;;;;15.27;10.53;;;11.60;99.90;;;12.12;91.71;100418.81;5053938;28;20380;-69
2022/12/22 08:56:50;;;;;;;14.00;10.63;;;11.90;99.90;;;12.41;90.20;100424.47;5053941;28;20037;-69
2022/12/22 08:59:19;;;;;;;13.20;9.95;;;12.20;99.90;;;12.69;88.78;100422.16;5053679;28;20462;-70
2022/12/22 09:01:49;;;;;;;18.63;10.50;;;12.60;99.90;;;12.98;87.48;100429.50;5051784;28;20041;-69
2022/12/22 09:04:22;;;;;;;15.50;9.65;;;12.80;99.90;;;13.17;85.61;100442.41;5053843;28;20051;-69
2022/12/22 09:06:52;;;;;;;12.40;10.10;;;13.00;99.90;;;13.40;84.14;100447.19;5053551;28;20055;-69
2022/12/22 09:09:20;;;;;;;13.88;9.98;;;13.20;99.90;;;13.67;83.47;100448.31;5053795;28;20481;-70
2022/12/22 09:11:50;;;;;;;12.90;9.77;;;13.50;99.90;;;13.82;82.41;100432.88;5053662;28;20048;-69
2022/12/22 09:14:18;;;;;;;12.15;9.98;;;13.80;99.90;;;14.17;81.29;100443.50;5053617;28;20068;-69
2022/12/22 09:16:47;;;;;;;14.23;9.80;;;14.00;99.90;;;14.32;80.19;100452.94;5053563;28;20045;-69
2022/12/22 09:19:15;;;;;;;16.33;9.80;;;14.20;99.90;;;14.50;79.68;100455.06;5053328;28;20410;-69
2022/12/22 09:21:45;;;;;;;13.07;8.43;;;14.30;99.90;;;14.51;78.45;100429.34;5053241;28;20045;-70
2022/12/22 09:24:14;;;;;;;16.93;10.07;;;14.50;99.90;;;14.43;77.49;100386.97;5053705;28;20136;-69
2022/12/22 09:26:42;;;;;;;17.45;10.30;;;14.60;99.90;;;14.94;77.09;100445.88;5053170;28;20284;-69
2022/12/22 09:29:14;;;;;;;17.15;9.45;;;14.80;99.90;;;15.10;75.77;100463.13;5053228;28;20045;-69
2022/12/22 09:31:42;;;;;;;10.88;8.82;;;14.90;99.90;;;15.21;75.06;100459.22;5053256;28;20073;-70
2022/12/22 09:34:11;;;;;;;12.68;8.00;;;15.00;99.90;;;15.48;74.48;100454.03;5053390;28;20048;-69
2022/12/22 09:36:47;;;;;;;10.88;7.80;;;15.30;99.90;;;15.69;73.65;100461.34;5053576;28;20506;-69
2022/12/22 09:39:16;;;;;;;9.98;7.20;;;15.40;99.90;;;15.93;72.47;100463.25;5053129;28;20041;-70
2022/12/22 09:41:51;;;;;;;12.30;7.05;;;15.70;99.90;;;16.22;71.99;100472.00;5053353;28;20045;-69
2022/12/22 09:44:26;;;;;;;11.13;5.93;;;16.00;99.90;;;16.08;71.15;100406.69;5053315;28;20090;-69
2022/12/22 09:46:57;;;;;;;9.55;4.88;;;16.30;99.90;;;16.67;70.36;100479.38;5053319;28;20045;-69
2022/12/22 09:49:26;;;;;;;10.88;4.68;;;16.50;99.90;;;16.75;69.61;100458.59;5068658;28;20490;-69
2022/12/22 09:52:00;;;;;;;9.50;4.55;;;16.70;99.90;;;16.99;69.33;100476.44;5053082;28;20498;-69
2022/12/22 09:54:29;;;;;;;10.60;4.70;;;16.80;99.90;;;17.18;68.85;100496.19;5068487;28;20060;-69
2022/12/22 09:56:58;;;;;;;9.00;5.00;;;17.00;99.90;;;17.19;68.00;100497.94;5052872;28;20127;-70
2022/12/22 09:59:28;;;;;;;11.65;5.00;;;17.00;99.90;;;17.49;68.17;100501.28;5052774;28;20573;-69
2022/12/22 10:02:23;;;;;;;10.35;5.28;;;17.20;99.90;;;17.69;67.24;100488.88;5053180;28;20049;-70
2022/12/22 10:05:10;;;;;;;9.68;5.13;;;17.50;99.90;;;17.68;66.66;100492.50;5051720;28;20051;-69
2022/12/22 10:07:41;;;;;;;8.93;5.25;;;17.50;99.90;;;17.81;66.71;100498.22;5053014;28;20072;-70
2022/12/22 10:10:24;;;;;;;8.13;5.28;;;17.60;99.90;;;17.57;66.32;100493.84;5053022;28;20418;-69
2022/12/22 10:12:55;;;;;;;10.93;5.45;;;17.40;99.90;;;17.48;66.67;100496.84;5054146;28;20495;-69
2022/12/22 10:15:23;;;;;;;;;;;17.30;99.90;;;17.43;66.78;100498.81;5056181;28;20064;-69
2022/12/22 10:17:54;;;;;;;10.80;5.47;;;17.20;99.90;;;17.42;66.77;100473.88;5056703;28;20374;-70
2022/12/22 10:20:25;;;;;;;;;;;17.30;99.90;;;17.60;66.43;100491.03;5057406;28;20372;-69
2022/12/22 10:22:58;;;;;;;8.48;5.15;;;17.30;99.90;;;17.42;66.49;100497.06;5057295;28;20282;-69
2022/12/22 10:25:33;;;;;;;12.23;5.25;;;17.20;99.90;;;17.49;66.33;100488.78;5056540;28;20041;-69
2022/12/22 10:28:24;;;;;;;9.25;5.90;;;17.20;99.90;;;17.39;66.26;100495.38;5056667;28;20056;-69
2022/12/22 10:31:13;;;;;;;11.50;4.90;;;17.20;99.90;;;16.99;66.63;100501.31;5056540;28;20394;-69
2022/12/22 10:33:43;;;;;;;9.32;5.82;;;16.90;99.90;;;16.69;67.35;100501.56;5057076;28;20150;-70
2022/12/22 10:36:20;;;;;;;10.40;5.47;;;16.50;99.90;;;16.37;68.39;100496.44;5072117;28;20045;-70
2022/12/22 10:39:02;;;;;;;8.90;5.80;;;16.10;99.90;;;16.26;68.98;100518.13;5056378;28;20049;-69
2022/12/22 10:41:36;;;;;;;11.10;6.10;;;16.00;99.90;;;16.19;69.54;100509.47;5056604;28;20037;-69
2022/12/22 10:44:09;;;;;;;9.20;6.25;;;15.90;99.90;;;15.71;70.19;100491.50;5056206;28;20483;-69
2022/12/22 10:46:41;;;;;;;14.43;9.75;;;15.60;99.90;;;15.22;70.67;100524.06;5055180;28;20053;-70
2022/12/22 10:49:19;;;;;;;13.93;11.15;;;15.10;99.90;;;14.60;72.36;100528.44;5056463;28;20123;-70
2022/12/22 10:51:51;;;;;;;14.88;11.65;;;14.50;99.90;;;13.97;74.42;100540.66;5055078;28;20478;-70
2022/12/22 10:54:43;;;;;;;17.30;13.52;;;13.80;99.90;;;13.31;76.35;100525.31;5056221;28;20071;-69
2022/12/22 10:57:29;;;;;;;20.50;15.20;;;13.20;99.90;;;12.65;78.85;100535.44;5053278;28;20059;-70
2022/12/22 11:00:00;;;;;;;21.88;16.65;;;12.60;99.90;;;12.43;80.80;100530.53;5055968;28;20045;-70
2022/12/22 11:02:36;;;;;;;19.30;13.90;;;12.20;99.90;;;11.91;82.26;100530.50;5055967;28;20059;-70
2022/12/22 11:05:08;;;;;;;18.92;13.70;;;11.70;99.90;;;11.73;84.01;100530.78;5055817;28;20372;-70
2022/12/22 11:07:39;;;;;;;21.00;15.07;;;11.50;99.90;;;11.54;85.49;100527.50;5056058;28;20548;-69
2022/12/22 11:10:23;;;;;;;;;;;11.30;99.90;;;11.43;86.75;100552.38;5071866;28;20098;-70
2022/12/22 11:13:19;;;;;;;23.13;15.18;;;11.10;99.90;;;11.25;87.53;100537.59;5056339;28;20015;-70
2022/12/22 11:15:54;;;;;;;24.02;16.25;;;11.00;99.90;;;11.23;88.59;100531.44;5071410;28;20049;-70
2022/12/22 11:18:42;;;;;;;24.15;16.05;;;10.90;99.90;;;11.15;89.13;100543.88;5055948;28;20069;-70
2022/12/22 11:21:18;;;;;;;27.33;16.50;;;10.90;99.90;;;11.10;89.77;100551.00;5055524;28;20131;-70
2022/12/22 11:24:02;;;;;;;25.83;16.38;;;10.80;99.90;;;10.80;90.37;100532.84;5054123;28;20509;-70
2022/12/22 11:26:44;;;;;;;24.30;15.30;;;10.70;99.90;;;10.72;91.44;100547.91;5055572;28;20133;-70
2022/12/22 11:29:31;;;;;;;24.98;15.02;;;10.50;99.90;;;10.64;92.34;100540.06;5055705;28;20566;-71
2022/12/22 11:32:21;;;;;;;25.55;14.43;;;10.40;99.90;;;10.69;92.89;100540.88;5055369;28;20041;-70
2022/12/22 11:34:58;;;;;;;27.85;15.75;;;10.40;99.90;;;10.80;92.97;100551.38;5071298;28;20524;-70
2022/12/22 11:37:40;;;;;;;23.38;14.07;;;10.50;99.90;;;10.58;93.51;100545.41;5055564;28;20073;-70
2022/12/22 11:40:19;;;;;;;25.23;14.60;;;10.40;99.90;;;10.59;94.03;100531.28;5070981;28;20136;-70
2022/12/22 11:43:15;;;;;;;27.30;15.55;;;10.40;99.90;;;10.53;94.73;100544.56;5055101;28;20095;-71
2022/12/22 11:46:02;;;;;;;25.20;16.27;;;10.40;99.90;;;10.73;94.39;100534.66;5054969;28;20037;-70
2022/12/22 11:48:58;;;;;;;27.08;16.70;;;10.50;99.90;;;10.78;94.35;100516.13;5055637;28;20037;-70
2022/12/22 11:51:58;;;;;;;26.30;16.45;;;10.50;99.90;;;10.84;94.08;100526.59;5054690;28;20136;-76
2022/12/22 11:55:00;;;;;;;28.25;17.25;;;10.50;99.90;;;10.89;93.93;100532.75;5055006;28;20459;-71
2022/12/22 11:57:37;;;;;;;30.20;19.73;;;10.60;99.90;;;10.89;93.95;100527.44;5054930;28;20446;-72
2022/12/22 12:00:12;;;;;;;30.50;18.73;;;10.70;99.90;;;10.59;93.75;100494.25;5055634;28;20041;-74
2022/12/22 12:03:35;;;;;;;30.77;20.38;;;10.60;99.90;;;10.74;94.01;100515.25;5055123;28;20064;-73
2022/12/22 12:06:28;;;;;;;32.47;21.48;;;10.50;99.90;;;10.73;94.38;100509.97;5053702;28;20045;-74
2022/12/22 12:09:27;;;;;;;34.88;23.60;;;10.50;99.90;;;10.77;94.68;100502.00;5054712;28;20233;-76
2022/12/22 12:12:05;;;;;;;36.63;23.27;;;10.50;99.90;;;10.86;94.68;100501.00;5070608;28;20056;-76
2022/12/22 12:14:45;;;;;;;34.97;22.88;;;10.60;99.90;;;10.95;94.62;100507.97;5054570;28;20483;-72
2022/12/22 12:17:25;;;;;;;32.65;24.50;;;10.60;99.90;;;11.00;94.33;100487.59;5054535;28;20037;-78
2022/12/22 12:20:13;;;;;;;41.13;24.77;;;10.70;99.90;;;10.96;94.27;100477.94;5054783;28;20048;-72
2022/12/22 12:22:56;;;;;;;35.30;25.23;;;10.70;99.90;;;10.94;94.11;100488.56;5054936;28;20483;-74
2022/12/22 12:25:31;;;;;;;36.13;25.27;;;10.70;99.90;;;11.05;93.84;100494.63;5054324;28;20413;-70
2022/12/22 12:28:13;;;;;;;36.15;25.52;;;10.80;99.90;;;11.12;93.42;100492.75;5054538;28;20048;-73
2022/12/22 12:30:52;;;;;;;35.88;24.80;;;10.80;99.90;;;10.98;93.43;100492.94;5054256;28;20048;-73
2022/12/22 12:33:36;;;;;;;42.10;26.17;;;10.80;99.90;;;10.94;93.34;100471.84;5054456;28;20140;-72
2022/12/22 12:36:15;;;;;;;41.85;28.20;;;10.80;99.90;;;11.02;93.34;100481.41;5054157;28;20071;-73
2022/12/22 12:38:54;;;;;;;40.50;28.35;;;10.80;99.90;;;11.05;93.27;100472.56;5054126;28;20120;-73
2022/12/22 12:41:47;;;;;;;42.28;28.90;;;10.80;99.90;;;11.00;92.95;100461.16;5054203;28;20453;-73
2022/12/22 12:44:21;;;;;;;42.40;28.80;;;10.80;99.90;;;10.90;93.46;100441.88;5054257;28;20053;-70
2022/12/22 12:47:05;;;;;;;38.47;28.08;;;10.80;99.90;;;11.09;93.39;100469.84;5053785;28;20126;-70
2022/12/22 12:49:56;;;;;;;42.38;30.20;;;10.80;99.90;;;11.27;93.09;100459.03;5053849;28;20128;-70
2022/12/22 12:53:13;;;;;;;44.85;30.15;;;11.00;99.90;;;11.34;92.60;100471.25;5053829;28;20487;-69
2022/12/22 12:56:04;;;;;;;43.28;29.60;;;11.10;99.90;;;11.44;92.36;100446.41;5051173;28;20132;-70
2022/12/22 12:58:52;;;;;;;43.17;30.15;;;11.20;99.90;;;11.47;91.98;100449.03;5053602;28;20041;-70
2022/12/22 13:01:59;;;;;;;41.33;30.48;;;11.30;99.90;;;11.54;91.86;100455.09;5053624;28;20079;-70
2022/12/22 13:05:12;;;;;;;39.45;28.05;;;11.30;99.90;;;11.47;91.58;100449.03;5053579;28;20049;-71
2022/12/22 13:08:22;;;;;;;41.58;27.88;;;11.30;99.90;;;11.48;92.12;100437.53;5054046;28;20045;-70
2022/12/22 13:11:32;;;;;;;43.65;29.52;;;11.20;99.90;;;11.53;92.27;100425.09;5017914;28;20053;-70
2022/12/22 13:14:55;;;;;;;39.33;27.20;;;11.30;99.90;;;11.57;92.07;100424.16;5053269;28;20494;-71
2022/12/22 13:17:39;;;;;;;38.75;27.65;;;11.40;99.90;;;11.57;92.37;100421.50;5053397;28;20114;-71
2022/12/22 13:20:15;;;;;;;39.92;26.98;;;11.40;99.90;;;11.53;92.69;100408.34;5069254;28;20053;-70
2022/12/22 13:22:44;;;;;;;45.22;27.65;;;11.40;99.90;;;11.60;92.98;100413.50;5053588;28;20049;-71
2022/12/22 13:25:16;;;;;;;36.47;26.77;;;11.40;99.90;;;11.69;93.06;100416.03;5053410;28;20045;-70
2022/12/22 13:27:44;;;;;;;38.95;27.25;;;11.50;99.90;;;11.81;92.98;100404.34;5053608;28;20049;-67
2022/12/22 13:30:17;;;;;;;38.58;26.92;;;11.60;99.90;;;11.79;92.66;100396.44;5053214;28;20076;-67
2022/12/22 13:32:49;;;;;;;35.08;26.02;;;11.60;99.90;;;11.82;92.62;100397.28;5053480;28;20044;-67
2022/12/22 13:40:32;;;;;;;36.80;26.17;;;11.70;99.90;;;11.81;92.90;100388.44;5052894;28;20142;-68
2022/12/22 13:43:04;;;;;;;41.90;26.42;;;11.70;99.90;;;11.78;93.06;100394.69;5053568;28;20434;-68
2022/12/22 13:45:37;;;;;;;38.20;25.83;;;11.60;99.90;;;11.78;93.23;100389.41;5052867;28;20049;-67
2022/12/22 13:48:13;;;;;;;39.42;25.52;;;11.60;99.90;;;11.77;93.02;100385.00;5052545;28;20067;-68
2022/12/22 13:50:45;;;;;;;36.30;25.98;;;11.60;99.90;;;11.66;93.01;100389.59;5052975;28;20037;-67
2022/12/22 13:53:22;;;;;;;37.15;25.02;;;11.50;99.90;;;11.61;93.17;100375.50;5053229;28;20053;-68
2022/12/22 13:56:17;;;;;;;38.88;26.88;;;11.50;99.90;;;11.30;93.94;100366.34;5052985;28;20068;-68
2022/12/22 13:58:51;;;;;;;37.53;26.90;;;11.30;99.90;;;11.44;94.59;100379.34;5053139;28;20060;-71
2022/12/22 14:01:20;;;;;;;39.70;27.63;;;11.30;99.90;;;11.54;94.49;100370.34;5053119;28;20132;-75
2022/12/22 14:03:52;;;;;;;39.75;28.67;;;11.40;99.90;;;11.54;94.65;100384.47;5053083;28;20380;-74
2022/12/22 14:06:33;;;;;;;40.35;28.17;;;11.40;99.90;;;11.52;94.70;100370.38;5053007;28;20136;-74
2022/12/22 14:09:14;;;;;;;42.17;29.40;;;11.40;99.90;;;11.54;95.00;100359.75;5052774;28;20072;-71
2022/12/22 14:11:48;;;;;;;42.42;28.25;;;11.40;99.90;;;11.57;95.19;100365.88;5052944;28;20041;-73